Time;durP1;ratioP1;P1;durP2;ratioP2;P2;SDS_P1;SDS_P2;PMS_P1;PMS_P2;Temp;Humidity;BMP_temperature;BMP_pressure;BME280_temperature;BME280_humidity;BME280_pressure;Samples;Min_cycle;Max_cycle;Signal;HPM_P1;HPM_P2
2022/01/20 00:03:21;;;;;;;17.67;3.10;;;22.90;58.60;;;;;;5031665;28;20185;-78
2022/01/20 00:08:34;;;;;;;15.43;3.00;;;22.60;61.20;;;;;;5032131;28;20196;-79
2022/01/20 00:27:39;;;;;;;21.00;3.73;;;22.10;65.80;;;;;;5028005;28;20200;-78
2022/01/20 00:33:17;;;;;;;17.33;4.00;;;22.20;64.60;;;;;;5032190;28;20256;-87
2022/01/20 00:38:18;;;;;;;25.13;4.90;;;21.30;77.80;;;;;;5030785;28;20232;-75
2022/01/20 00:40:45;;;;;;;19.93;3.63;;;20.90;79.40;;;;;;5028746;28;20242;-79
2022/01/20 00:43:13;;;;;;;23.07;4.20;;;20.80;81.30;;;;;;5028879;28;20211;-76
2022/01/20 00:45:40;;;;;;;18.50;3.73;;;20.80;80.50;;;;;;5028617;28;20215;-82
2022/01/20 00:48:08;;;;;;;19.57;3.43;;;20.80;78.90;;;;;;5037985;28;20181;-81
2022/01/20 00:50:35;;;;;;;24.77;4.73;;;21.10;77.80;;;;;;5037420;28;20185;-81
2022/01/20 00:53:03;;;;;;;22.77;3.93;;;21.30;77.60;;;;;;5028487;28;20193;-80
2022/01/20 00:55:31;;;;;;;26.00;4.57;;;21.50;77.90;;;;;;5032253;28;20557;-83
2022/01/20 00:57:59;;;;;;;21.93;4.57;;;21.50;77.70;;;;;;5030296;28;20228;-80
2022/01/20 01:00:26;;;;;;;28.37;4.80;;;21.40;76.60;;;;;;5031838;28;20186;-74
2022/01/20 01:02:56;;;;;;;30.07;4.40;;;21.40;76.30;;;;;;5031701;28;20223;-83
2022/01/20 01:06:02;;;;;;;18.07;3.87;;;21.20;72.70;;;;;;5033549;28;20208;-86
2022/01/20 01:08:57;;;;;;;18.67;3.73;;;21.10;71.00;;;;;;5035683;28;20180;-87
2022/01/20 01:11:35;;;;;;;17.00;3.50;;;20.90;71.10;;;;;;5033827;28;20199;-87
2022/01/20 01:14:06;;;;;;;15.87;3.77;;;21.00;70.20;;;;;;5037791;28;20191;-89
2022/01/20 01:25:10;;;;;;;20.03;4.37;;;21.60;65.40;;;;;;5036896;28;20655;-84
2022/01/20 01:27:41;;;;;;;19.83;3.77;;;21.80;64.70;;;;;;5034840;28;20200;-84
2022/01/20 01:33:17;;;;;;;17.60;3.57;;;22.00;61.80;;;;;;5027497;28;20188;-82
2022/01/20 01:35:45;;;;;;;23.97;4.27;;;22.20;60.30;;;;;;5029189;28;20188;-75
2022/01/20 01:40:58;;;;;;;20.27;3.63;;;22.50;58.40;;;;;;5052925;27;20609;-77
2022/01/20 01:43:26;;;;;;;15.83;3.30;;;22.80;55.80;;;;;;5049585;28;20187;-77
2022/01/20 01:45:56;;;;;;;18.80;2.67;;;23.20;54.20;;;;;;5051712;28;20195;-76
2022/01/20 01:48:23;;;;;;;18.00;4.10;;;23.30;52.70;;;;;;5047929;28;20188;-83
2022/01/20 01:50:51;;;;;;;19.53;2.83;;;23.50;52.60;;;;;;5049547;28;20631;-79
2022/01/20 01:53:19;;;;;;;14.40;2.97;;;23.70;50.90;;;;;;5049345;28;20662;-84
2022/01/20 01:55:47;;;;;;;15.90;3.07;;;23.90;50.60;;;;;;5049098;28;20263;-77
2022/01/20 01:58:14;;;;;;;17.07;2.93;;;24.00;49.30;;;;;;5048135;28;20198;-83
2022/01/20 02:00:43;;;;;;;18.43;2.80;;;24.40;49.40;;;;;;5050311;28;20211;-78
2022/01/20 02:03:12;;;;;;;17.27;3.27;;;24.60;47.20;;;;;;5052235;28;20615;-77
2022/01/20 02:05:57;;;;;;;14.37;3.03;;;24.80;47.80;;;;;;5050869;28;20240;-79
2022/01/20 02:08:41;;;;;;;23.10;2.90;;;25.00;46.30;;;;;;5056862;28;20226;-74
2022/01/20 02:19:27;;;;;;;18.17;3.20;;;25.00;51.50;;;;;;5052888;28;20207;-75
2022/01/20 02:22:01;;;;;;;13.17;3.10;;;24.90;52.50;;;;;;5052123;28;20271;-79
2022/01/20 02:24:29;;;;;;;19.00;3.03;;;25.50;51.20;;;;;;5058464;28;20188;-73
2022/01/20 02:26:58;;;;;;;15.43;4.03;;;25.30;51.60;;;;;;5054066;28;20258;-75
2022/01/20 02:29:25;;;;;;;18.77;3.40;;;25.40;50.50;;;;;;5047351;28;20259;-74
2022/01/20 02:31:58;;;;;;;16.77;3.20;;;25.50;50.30;;;;;;5048485;28;20183;-75
2022/01/20 02:34:29;;;;;;;26.40;3.40;;;25.50;49.50;;;;;;5047657;28;20242;-80
2022/01/20 02:36:59;;;;;;;18.03;3.33;;;25.90;49.30;;;;;;5048283;28;20210;-78
2022/01/20 02:44:55;;;;;;;19.80;3.57;;;24.40;53.80;;;;;;5046570;28;20255;-78
2022/01/20 02:47:28;;;;;;;20.87;3.23;;;24.30;52.70;;;;;;5047681;28;20184;-80
2022/01/20 02:49:56;;;;;;;16.13;3.23;;;24.30;52.90;;;;;;5048158;28;20224;-78
2022/01/20 02:52:25;;;;;;;13.73;2.27;;;24.30;51.40;;;;;;5034182;28;20627;-80
2022/01/20 02:54:54;;;;;;;15.50;2.90;;;24.20;50.20;;;;;;5034659;28;20554;-77
2022/01/20 02:57:22;;;;;;;19.87;3.07;;;24.10;49.30;;;;;;5034457;28;20275;-79
2022/01/20 02:59:50;;;;;;;13.93;2.70;;;24.10;50.70;;;;;;5034362;28;20315;-78
2022/01/20 03:02:18;;;;;;;15.67;3.00;;;23.90;52.30;;;;;;5032837;28;20204;-77
2022/01/20 03:04:47;;;;;;;15.43;2.53;;;23.80;52.10;;;;;;5034649;28;20566;-78
2022/01/20 03:07:15;;;;;;;14.80;2.87;;;24.00;52.40;;;;;;5034598;28;20249;-78
2022/01/20 03:09:42;;;;;;;16.20;3.47;;;24.20;50.10;;;;;;5034743;28;20180;-77
2022/01/20 03:12:09;;;;;;;14.67;3.13;;;24.30;50.10;;;;;;5034294;28;20215;-78
2022/01/20 03:14:38;;;;;;;11.47;3.03;;;24.50;49.20;;;;;;5034582;28;20204;-76
2022/01/20 03:17:05;;;;;;;14.83;2.77;;;24.60;49.20;;;;;;5034489;28;20268;-73
2022/01/20 03:19:36;;;;;;;9.60;2.90;;;24.80;49.10;;;;;;5034131;28;20323;-83
2022/01/20 03:22:04;;;;;;;14.77;3.60;;;24.90;48.10;;;;;;5034467;28;20184;-76
2022/01/20 03:24:31;;;;;;;14.57;2.80;;;25.10;49.00;;;;;;5032854;28;20195;-76
2022/01/20 03:26:58;;;;;;;16.23;2.70;;;25.30;49.10;;;;;;5034052;28;20289;-75
2022/01/20 03:29:26;;;;;;;13.80;2.87;;;25.90;47.70;;;;;;5032444;28;20196;-75
2022/01/20 03:31:53;;;;;;;19.37;3.13;;;26.20;48.20;;;;;;5034729;28;20185;-74
2022/01/20 03:34:24;;;;;;;17.97;3.17;;;26.20;47.60;;;;;;5034200;28;20267;-80
2022/01/20 03:36:52;;;;;;;13.07;2.90;;;25.90;49.20;;;;;;5033996;28;20204;-83
2022/01/20 03:39:20;;;;;;;18.47;3.23;;;25.60;49.50;;;;;;5032677;28;20276;-76
2022/01/20 03:41:48;;;;;;;13.43;2.93;;;25.30;51.40;;;;;;5033937;28;20702;-78
2022/01/20 03:44:16;;;;;;;18.33;3.60;;;25.20;52.10;;;;;;5034079;28;20184;-74
2022/01/20 03:46:44;;;;;;;17.67;3.10;;;25.30;52.90;;;;;;5031216;28;20497;-79
2022/01/20 03:49:21;;;;;;;18.23;3.27;;;24.80;51.60;;;;;;5033943;28;20207;-78
2022/01/20 03:51:48;;;;;;;14.60;3.17;;;24.80;52.00;;;;;;5033928;28;20766;-76
2022/01/20 03:54:15;;;;;;;13.13;3.17;;;24.90;51.40;;;;;;5033739;28;20172;-76
2022/01/20 03:56:43;;;;;;;13.73;2.83;;;25.20;51.00;;;;;;5033716;28;20264;-72
2022/01/20 03:59:10;;;;;;;18.00;2.80;;;25.70;51.90;;;;;;5034445;28;20196;-73
2022/01/20 04:01:38;;;;;;;12.87;3.07;;;25.80;51.90;;;;;;5041726;28;20177;-77
2022/01/20 04:04:05;;;;;;;14.70;2.97;;;26.10;49.90;;;;;;5039182;28;20185;-73
2022/01/20 04:06:32;;;;;;;18.17;3.20;;;26.30;48.70;;;;;;5033951;28;20185;-75
2022/01/20 04:09:00;;;;;;;12.13;2.60;;;26.30;47.90;;;;;;5033405;28;20205;-84
2022/01/20 04:11:29;;;;;;;9.70;2.60;;;26.00;48.00;;;;;;5033345;28;20184;-72
2022/01/20 04:13:57;;;;;;;11.83;2.70;;;26.30;48.60;;;;;;5033647;28;20280;-74
2022/01/20 04:16:33;;;;;;;17.43;2.70;;;26.20;47.90;;;;;;5033065;28;20194;-79
2022/01/20 04:19:01;;;;;;;11.63;2.63;;;26.30;47.80;;;;;;5032361;28;20270;-76
2022/01/20 04:21:31;;;;;;;12.63;2.97;;;25.90;48.80;;;;;;5029640;28;20189;-76
2022/01/20 04:24:01;;;;;;;12.90;2.80;;;25.80;49.40;;;;;;5033492;28;20727;-79
2022/01/20 04:26:29;;;;;;;17.43;3.57;;;25.80;49.70;;;;;;5032320;28;20184;-75
2022/01/20 04:28:57;;;;;;;9.47;2.47;;;25.30;52.00;;;;;;5032918;28;20234;-75
2022/01/20 04:31:29;;;;;;;10.33;2.57;;;25.70;50.20;;;;;;5029295;28;20189;-76
2022/01/20 04:33:57;;;;;;;12.83;2.53;;;26.30;49.80;;;;;;5033186;28;20267;-77
2022/01/20 04:36:26;;;;;;;14.73;2.50;;;26.50;47.70;;;;;;5031509;28;20342;-77
2022/01/20 04:38:54;;;;;;;13.30;2.90;;;26.60;45.90;;;;;;5027379;28;20248;-79
2022/01/20 04:41:23;;;;;;;6.73;1.83;;;26.30;46.60;;;;;;5032373;28;20241;-75
2022/01/20 04:43:53;;;;;;;9.83;2.37;;;25.80;45.70;;;;;;5028372;28;20287;-79
2022/01/20 04:46:38;;;;;;;13.03;2.33;;;25.40;47.30;;;;;;5032122;28;20185;-77
2022/01/20 04:57:02;;;;;;;13.67;2.50;;;25.50;48.60;;;;;;5029597;28;20187;-75
2022/01/20 04:57:23;;;;;;;11.07;2.40;;;25.10;49.80;;;;;;5032308;28;20188;-75
2022/01/20 04:59:54;;;;;;;12.80;2.90;;;24.80;49.90;;;;;;5032164;28;20283;-76
2022/01/20 05:02:25;;;;;;;12.80;3.30;;;24.80;51.10;;;;;;5031195;28;20181;-75
2022/01/20 05:04:57;;;;;;;14.67;3.30;;;24.80;52.20;;;;;;5032027;28;20639;-76
2022/01/20 05:07:27;;;;;;;16.20;2.97;;;25.60;51.20;;;;;;5029994;28;20196;-78
2022/01/20 05:09:56;;;;;;;12.07;2.83;;;25.80;51.60;;;;;;5027170;28;20196;-78
2022/01/20 05:12:33;;;;;;;15.80;2.90;;;26.40;50.90;;;;;;5032620;28;20180;-79
2022/01/20 05:15:01;;;;;;;16.63;3.37;;;27.00;49.30;;;;;;5028435;28;20622;-81
2022/01/20 05:17:28;;;;;;;18.33;3.73;;;27.40;47.10;;;;;;5030211;28;20177;-79
2022/01/20 05:19:55;;;;;;;17.13;3.17;;;26.40;49.20;;;;;;5031516;28;20208;-76
2022/01/20 05:22:23;;;;;;;17.20;2.97;;;25.70;51.40;;;;;;5032531;28;20653;-75
2022/01/20 05:24:53;;;;;;;13.43;2.90;;;25.40;51.70;;;;;;5031756;28;20212;-80
2022/01/20 05:27:23;;;;;;;14.57;2.90;;;25.30;52.50;;;;;;5043151;28;20275;-77
2022/01/20 05:29:51;;;;;;;16.10;3.60;;;25.40;52.30;;;;;;5023472;28;20582;-76
2022/01/20 05:32:19;;;;;;;11.53;3.13;;;26.40;49.90;;;;;;5029741;28;20189;-77
2022/01/20 05:34:47;;;;;;;11.80;2.87;;;27.20;47.70;;;;;;5036002;28;20195;-78
2022/01/20 05:37:14;;;;;;;14.57;3.53;;;28.20;45.10;;;;;;5036789;28;21084;-76
2022/01/20 05:39:42;;;;;;;14.20;2.90;;;28.00;45.20;;;;;;5037834;28;20314;-79
2022/01/20 05:42:10;;;;;;;13.93;3.10;;;28.60;43.70;;;;;;5029891;28;20260;-78
2022/01/20 05:44:38;;;;;;;12.03;3.13;;;28.30;43.30;;;;;;5031606;28;20187;-77
2022/01/20 05:47:10;;;;;;;15.33;4.60;;;28.30;44.40;;;;;;5028159;28;20189;-77
2022/01/20 05:49:38;;;;;;;15.03;3.90;;;27.30;46.30;;;;;;5032191;28;20203;-81
2022/01/20 05:52:05;;;;;;;16.43;3.43;;;26.30;46.00;;;;;;5030795;28;20187;-77
2022/01/20 05:54:33;;;;;;;16.20;3.70;;;26.30;47.10;;;;;;5030006;28;20180;-79
2022/01/20 05:57:00;;;;;;;12.33;3.50;;;27.30;45.60;;;;;;5031645;28;20219;-76
2022/01/20 05:59:28;;;;;;;14.23;3.27;;;28.10;44.70;;;;;;5031907;28;20669;-74
2022/01/20 06:01:59;;;;;;;13.30;4.23;;;27.80;43.30;;;;;;5031527;28;20662;-78
2022/01/20 06:04:26;;;;;;;14.10;3.20;;;28.30;44.00;;;;;;5032080;28;20533;-81
2022/01/20 06:06:54;;;;;;;16.93;3.70;;;28.60;43.10;;;;;;5047031;28;20246;-76
2022/01/20 06:09:21;;;;;;;11.07;2.90;;;28.30;43.50;;;;;;5031433;28;20643;-76
2022/01/20 06:11:48;;;;;;;18.67;3.50;;;28.30;42.90;;;;;;5046859;28;20185;-76
2022/01/20 06:14:16;;;;;;;13.97;3.47;;;27.20;43.70;;;;;;5030866;28;20208;-79
2022/01/20 06:16:43;;;;;;;19.40;3.03;;;27.20;44.50;;;;;;5029888;28;20276;-79
2022/01/20 06:19:10;;;;;;;11.23;2.90;;;28.30;42.80;;;;;;5031688;28;20635;-78
2022/01/20 06:21:41;;;;;;;21.17;3.63;;;29.00;42.30;;;;;;5032059;28;20280;-81
2022/01/20 06:24:11;;;;;;;17.23;2.87;;;28.70;43.50;;;;;;5028741;28;20652;-85
2022/01/20 06:26:38;;;;;;;18.63;3.93;;;28.10;44.90;;;;;;5032963;28;20192;-79
2022/01/20 06:29:06;;;;;;;13.57;3.10;;;28.60;43.60;;;;;;5034983;28;20181;-79
2022/01/20 06:31:34;;;;;;;11.67;3.37;;;28.30;42.70;;;;;;5034603;28;20580;-76
2022/01/20 06:34:01;;;;;;;9.63;2.77;;;28.00;43.40;;;;;;5034200;28;20602;-79
2022/01/20 06:36:28;;;;;;;19.07;3.80;;;28.80;42.40;;;;;;5032433;28;20536;-75
2022/01/20 06:38:56;;;;;;;18.33;3.60;;;29.40;41.30;;;;;;5033783;28;20240;-75
2022/01/20 06:41:35;;;;;;;;;;;;;;;;;;;;;
2022/01/20 06:44:03;;;;;;;14.50;3.43;;;27.90;44.40;;;;;;5034710;28;20533;-82
2022/01/20 06:46:30;;;;;;;20.90;5.43;;;27.70;43.50;;;;;;5034289;28;20177;-77
2022/01/20 06:48:58;;;;;;;19.00;4.83;;;27.30;44.00;;;;;;5065635;28;20187;-80
2022/01/20 06:51:25;;;;;;;19.97;3.50;;;26.50;45.80;;;;;;5030679;28;20186;-79
2022/01/20 06:53:52;;;;;;;19.60;3.53;;;26.10;46.50;;;;;;5029498;28;20191;-78
2022/01/20 06:56:19;;;;;;;17.90;3.40;;;26.90;44.50;;;;;;5033140;28;20638;-77
2022/01/20 06:58:47;;;;;;;19.20;3.27;;;27.30;43.00;;;;;;5032411;28;20180;-75
2022/01/20 07:01:16;;;;;;;17.97;3.17;;;27.60;42.20;;;;;;5032029;28;20185;-79
2022/01/20 07:03:43;;;;;;;12.53;2.87;;;27.10;42.90;;;;;;5032449;28;20184;-75
2022/01/20 07:06:11;;;;;;;11.67;2.73;;;26.80;43.50;;;;;;5034204;28;20216;-75
2022/01/20 07:08:38;;;;;;;15.10;2.67;;;27.40;42.00;;;;;;5034146;28;20185;-74
2022/01/20 07:11:05;;;;;;;18.20;3.00;;;26.90;42.40;;;;;;5035669;28;20204;-76
2022/01/20 07:13:36;;;;;;;12.90;3.20;;;26.60;42.70;;;;;;5043299;28;20169;-80
2022/01/20 07:16:04;;;;;;;12.63;3.10;;;27.50;42.30;;;;;;5033741;28;20177;-74
2022/01/20 07:18:31;;;;;;;15.63;2.97;;;28.00;41.50;;;;;;5034212;28;20260;-77
2022/01/20 07:20:58;;;;;;;16.13;3.40;;;27.80;40.50;;;;;;5034351;28;20223;-76
2022/01/20 07:23:26;;;;;;;13.70;3.10;;;27.50;41.70;;;;;;5033460;28;20173;-73
2022/01/20 07:25:53;;;;;;;11.00;2.50;;;27.10;41.30;;;;;;5034513;28;20276;-75
2022/01/20 07:28:20;;;;;;;13.63;3.03;;;27.40;41.10;;;;;;5033911;28;20165;-75
2022/01/20 07:30:48;;;;;;;21.07;3.27;;;27.60;39.20;;;;;;5033166;28;20271;-78
2022/01/20 07:33:15;;;;;;;11.83;2.70;;;27.30;39.90;;;;;;5032892;28;20255;-76
2022/01/20 07:35:42;;;;;;;13.03;3.03;;;26.80;41.20;;;;;;5033436;28;20280;-74
2022/01/20 07:38:10;;;;;;;14.33;3.20;;;26.60;42.20;;;;;;5034281;28;20283;-74
2022/01/20 07:40:38;;;;;;;11.17;2.63;;;26.00;43.20;;;;;;5032729;28;20316;-82
2022/01/20 07:43:05;;;;;;;10.37;3.03;;;25.20;44.40;;;;;;5033368;28;20195;-78
2022/01/20 07:45:33;;;;;;;10.97;2.87;;;24.80;46.10;;;;;;5033044;28;20207;-81
2022/01/20 07:48:00;;;;;;;22.63;3.90;;;24.40;47.40;;;;;;5025886;28;20181;-76
2022/01/20 07:50:28;;;;;;;16.33;3.10;;;24.50;47.60;;;;;;5030587;28;20208;-75
2022/01/20 07:52:55;;;;;;;19.03;3.30;;;24.20;48.70;;;;;;5032695;28;20236;-76
2022/01/20 07:55:24;;;;;;;14.60;3.03;;;24.30;49.80;;;;;;5031877;28;20180;-79
2022/01/20 07:57:52;;;;;;;17.23;4.00;;;24.40;50.20;;;;;;5033623;28;20173;-79
2022/01/20 08:00:19;;;;;;;22.07;4.10;;;24.00;52.10;;;;;;5033380;28;20781;-77
2022/01/20 08:02:46;;;;;;;15.83;3.40;;;23.80;52.20;;;;;;5033043;28;20224;-76
2022/01/20 08:05:16;;;;;;;19.70;3.77;;;23.80;51.50;;;;;;5033193;28;20181;-79
2022/01/20 08:07:44;;;;;;;20.33;3.80;;;23.60;51.30;;;;;;5027717;28;20264;-81
2022/01/20 08:10:12;;;;;;;20.40;3.40;;;23.50;52.00;;;;;;5030599;28;20194;-73
2022/01/20 08:12:40;;;;;;;16.87;3.60;;;23.30;52.70;;;;;;5031686;28;20287;-75
2022/01/20 08:15:12;;;;;;;18.43;3.67;;;23.10;53.30;;;;;;5032622;28;20267;-75
2022/01/20 08:17:44;;;;;;;17.33;3.47;;;23.10;53.60;;;;;;5032020;28;20234;-75
2022/01/20 08:20:12;;;;;;;20.30;4.23;;;23.00;53.20;;;;;;5031752;28;20212;-74
2022/01/20 08:22:39;;;;;;;15.50;3.37;;;22.90;53.20;;;;;;5030153;28;20647;-76
2022/01/20 08:25:16;;;;;;;22.50;3.20;;;22.90;53.60;;;;;;5032699;28;20184;-72
2022/01/20 08:27:44;;;;;;;21.63;3.40;;;22.90;53.90;;;;;;5025813;28;20180;-76
2022/01/20 08:30:17;;;;;;;19.70;3.93;;;22.80;53.60;;;;;;5027514;28;20188;-75
2022/01/20 08:32:47;;;;;;;17.73;3.57;;;22.80;53.70;;;;;;5032157;28;20177;-76
2022/01/20 08:35:15;;;;;;;18.53;4.47;;;22.90;54.20;;;;;;5032639;28;20185;-75
2022/01/20 08:37:47;;;;;;;21.13;3.90;;;22.80;55.60;;;;;;5029508;28;20586;-77
2022/01/20 08:40:18;;;;;;;26.17;3.40;;;22.70;57.30;;;;;;5032156;28;20236;-75
2022/01/20 08:42:47;;;;;;;25.83;4.30;;;22.60;58.50;;;;;;5030008;28;20173;-77
2022/01/20 08:45:21;;;;;;;23.70;4.23;;;22.40;61.60;;;;;;5034233;28;20230;-74
2022/01/20 08:47:52;;;;;;;21.23;3.80;;;22.20;63.50;;;;;;5044223;28;20190;-74
2022/01/20 08:50:20;;;;;;;27.77;4.47;;;22.20;63.90;;;;;;5031053;28;20181;-76
2022/01/20 08:52:48;;;;;;;23.70;4.07;;;22.30;64.10;;;;;;5032210;28;20255;-75
2022/01/20 08:55:16;;;;;;;27.40;4.67;;;22.20;64.10;;;;;;5031891;28;20188;-76
2022/01/20 08:57:43;;;;;;;21.10;4.03;;;22.10;64.70;;;;;;5027933;28;20185;-78
2022/01/20 09:00:12;;;;;;;26.77;4.33;;;22.10;64.60;;;;;;5032464;28;20247;-76
2022/01/20 09:02:40;;;;;;;30.33;4.23;;;22.10;64.20;;;;;;5032648;28;20177;-76
2022/01/20 09:05:08;;;;;;;16.57;3.90;;;22.00;64.60;;;;;;5031551;28;20203;-78
2022/01/20 09:07:39;;;;;;;24.47;4.50;;;21.90;64.80;;;;;;5047536;28;20181;-76
2022/01/20 09:10:08;;;;;;;22.00;4.27;;;21.80;64.70;;;;;;5056540;28;20180;-76
2022/01/20 09:17:53;;;;;;;22.77;4.50;;;21.70;65.20;;;;;;5028020;28;20223;-73
2022/01/20 09:20:21;;;;;;;20.30;4.90;;;21.80;65.40;;;;;;5032466;28;20865;-79
2022/01/20 09:22:50;;;;;;;17.13;4.10;;;21.60;65.80;;;;;;5032563;28;20211;-80
2022/01/20 09:25:19;;;;;;;24.03;3.70;;;21.60;66.00;;;;;;5031366;28;20184;-76
2022/01/20 09:27:46;;;;;;;24.07;5.07;;;21.70;66.30;;;;;;5030872;28;20184;-76
2022/01/20 09:30:18;;;;;;;26.63;4.40;;;21.70;66.30;;;;;;5031150;28;20283;-72
2022/01/20 09:33:33;;;;;;;25.57;4.70;;;21.60;66.40;;;;;;5025169;28;20238;-76
2022/01/20 09:35:37;;;;;;;26.47;5.07;;;21.50;66.80;;;;;;5025889;28;20192;-75
2022/01/20 09:38:06;;;;;;;29.30;4.90;;;21.60;66.70;;;;;;5032079;28;20184;-77
2022/01/20 09:40:35;;;;;;;26.47;4.83;;;21.60;66.70;;;;;;5028844;28;20636;-76
2022/01/20 09:43:04;;;;;;;27.83;4.67;;;21.60;66.60;;;;;;5030945;28;20176;-77
2022/01/20 09:45:35;;;;;;;25.67;5.07;;;21.60;66.40;;;;;;5029248;28;20222;-76
2022/01/20 09:48:02;;;;;;;28.87;6.63;;;21.60;66.10;;;;;;5047492;28;20203;-78
2022/01/20 09:50:32;;;;;;;22.07;4.07;;;21.60;65.50;;;;;;5032017;28;20184;-75
2022/01/20 09:53:05;;;;;;;25.13;5.17;;;21.60;65.50;;;;;;5031422;28;20199;-79
2022/01/20 09:55:34;;;;;;;28.17;4.87;;;21.50;65.50;;;;;;5029138;28;20176;-76
2022/01/20 09:58:03;;;;;;;24.50;4.33;;;21.60;65.40;;;;;;5031093;28;20184;-78
2022/01/20 10:00:30;;;;;;;17.87;4.20;;;21.60;65.60;;;;;;5031008;28;20701;-82
2022/01/20 10:03:06;;;;;;;31.97;5.00;;;21.70;65.70;;;;;;5034357;28;20191;-78
2022/01/20 10:05:38;;;;;;;28.40;4.80;;;21.60;65.90;;;;;;5036858;28;20184;-82
2022/01/20 10:08:10;;;;;;;25.97;4.17;;;21.60;66.10;;;;;;5036469;28;20172;-80
2022/01/20 10:11:07;;;;;;;32.47;4.30;;;21.60;66.00;;;;;;5035662;28;20287;-85
2022/01/20 10:13:41;;;;;;;32.87;4.70;;;21.70;65.90;;;;;;5037722;28;21844;-82
2022/01/20 10:16:13;;;;;;;18.17;4.60;;;21.60;65.90;;;;;;5040356;28;20200;-82
2022/01/20 10:18:57;;;;;;;31.40;5.07;;;21.70;65.90;;;;;;5039603;28;20181;-81
2022/01/20 10:21:32;;;;;;;28.20;4.43;;;21.60;65.90;;;;;;5046156;28;20205;-77
2022/01/20 10:24:13;;;;;;;22.30;4.43;;;21.60;65.90;;;;;;5038873;28;20179;-77
2022/01/20 10:26:41;;;;;;;35.57;4.90;;;21.50;66.50;;;;;;5035649;28;20188;-84
2022/01/20 10:29:17;;;;;;;31.80;5.17;;;21.40;66.60;;;;;;5034162;28;20184;-81
2022/01/20 10:31:49;;;;;;;26.67;5.00;;;21.40;66.90;;;;;;5035487;28;20169;-76
2022/01/20 10:34:35;;;;;;;23.93;4.87;;;21.30;67.50;;;;;;5035130;28;20633;-78
2022/01/20 10:37:15;;;;;;;30.73;5.23;;;21.30;67.30;;;;;;5035207;28;20215;-78
2022/01/20 10:39:47;;;;;;;29.60;4.73;;;21.20;67.50;;;;;;5034962;28;20615;-79
2022/01/20 10:42:26;;;;;;;28.77;5.23;;;21.20;67.80;;;;;;5034035;28;20191;-81
2022/01/20 10:44:58;;;;;;;22.67;4.53;;;21.20;67.30;;;;;;5035269;28;20260;-82
2022/01/20 10:47:40;;;;;;;18.63;4.73;;;21.20;67.20;;;;;;5034602;28;20177;-83
2022/01/20 10:50:16;;;;;;;26.87;5.67;;;21.20;66.80;;;;;;5031723;28;20261;-84
2022/01/20 10:52:44;;;;;;;30.73;6.00;;;21.20;67.10;;;;;;5034255;28;20541;-78
2022/01/20 10:55:32;;;;;;;;;;;;;;;;;;;;;
2022/01/20 10:58:29;;;;;;;27.23;5.13;;;21.30;66.50;;;;;;5031695;28;20176;-80
2022/01/20 11:01:01;;;;;;;24.23;4.20;;;21.20;67.00;;;;;;5029796;28;20235;-81
2022/01/20 11:03:30;;;;;;;20.20;3.50;;;21.10;67.60;;;;;;5028340;28;20566;-78
2022/01/20 11:05:59;;;;;;;20.03;4.13;;;21.00;68.20;;;;;;5034448;28;20180;-82
2022/01/20 11:08:27;;;;;;;22.50;4.47;;;21.00;68.50;;;;;;5027507;28;20299;-84
2022/01/20 11:10:57;;;;;;;23.30;3.37;;;21.00;68.30;;;;;;5034753;28;20635;-78
2022/01/20 11:13:25;;;;;;;22.20;4.03;;;21.00;68.40;;;;;;5048778;28;20176;-82
2022/01/20 11:15:53;;;;;;;18.83;3.20;;;21.00;67.70;;;;;;5034267;28;20180;-81
2022/01/20 11:18:25;;;;;;;23.93;3.87;;;21.00;67.70;;;;;;5033006;28;20624;-79
2022/01/20 11:20:54;;;;;;;27.73;3.90;;;21.00;67.70;;;;;;5033988;28;20236;-78
2022/01/20 11:23:21;;;;;;;28.70;5.03;;;21.00;68.30;;;;;;5034125;28;20185;-82
2022/01/20 11:25:49;;;;;;;22.23;3.60;;;21.00;68.00;;;;;;5034105;28;20245;-79
2022/01/20 11:28:24;;;;;;;21.33;4.03;;;20.90;67.80;;;;;;5049704;28;20184;-79
2022/01/20 11:31:15;;;;;;;20.50;3.87;;;21.00;67.80;;;;;;5031209;28;20646;-81
2022/01/20 11:33:45;;;;;;;25.57;5.20;;;20.90;69.70;;;;;;5021457;28;20196;-82
2022/01/20 11:36:22;;;;;;;16.87;4.47;;;20.80;72.30;;;;;;5034269;28;20256;-84
2022/01/20 11:39:00;;;;;;;23.17;6.50;;;20.60;73.60;;;;;;5032659;28;20612;-84
2022/01/20 11:41:39;;;;;;;20.57;3.83;;;20.30;73.80;;;;;;5047256;28;20595;-81
2022/01/20 11:44:16;;;;;;;25.03;4.67;;;20.30;75.10;;;;;;5032613;28;20541;-82
2022/01/20 11:46:49;;;;;;;20.70;3.73;;;20.30;75.20;;;;;;5033107;28;20184;-84
2022/01/20 11:49:22;;;;;;;20.53;3.90;;;20.30;75.10;;;;;;5033340;28;20647;-81
2022/01/20 11:51:59;;;;;;;25.73;4.40;;;20.30;75.40;;;;;;5030627;28;20180;-83
2022/01/20 11:54:38;;;;;;;26.50;4.63;;;20.30;74.90;;;;;;5035414;28;20215;-82
2022/01/20 11:57:38;;;;;;;18.43;4.27;;;20.30;75.10;;;;;;5045688;28;20203;-82
2022/01/20 12:00:22;;;;;;;25.37;4.83;;;20.30;75.00;;;;;;5012237;28;20268;-82
2022/01/20 12:02:51;;;;;;;26.27;4.13;;;20.30;74.50;;;;;;5000959;28;20562;-80
2022/01/20 12:05:19;;;;;;;29.47;4.20;;;20.30;75.20;;;;;;5033316;28;20192;-80
2022/01/20 12:07:47;;;;;;;25.20;5.03;;;20.30;74.90;;;;;;5033440;28;20586;-79
2022/01/20 12:10:17;;;;;;;37.17;6.33;;;20.30;75.00;;;;;;5033437;28;20655;-80
2022/01/20 12:12:45;;;;;;;22.80;6.87;;;20.40;74.80;;;;;;5031676;28;20184;-80
2022/01/20 12:15:22;;;;;;;28.07;4.47;;;20.40;75.00;;;;;;5033328;28;20192;-82
2022/01/20 12:17:58;;;;;;;24.90;4.20;;;20.40;74.70;;;;;;5033541;28;20180;-77
2022/01/20 12:20:26;;;;;;;23.17;4.67;;;20.40;74.60;;;;;;5033307;28;20233;-80
2022/01/20 12:22:55;;;;;;;22.03;4.17;;;20.40;74.30;;;;;;5033129;28;20181;-80
2022/01/20 12:25:28;;;;;;;29.50;5.40;;;20.50;74.40;;;;;;5032788;28;20693;-79
2022/01/20 12:28:05;;;;;;;13.70;3.57;;;20.50;73.90;;;;;;5032096;28;20246;-80
2022/01/20 12:30:34;;;;;;;28.00;3.80;;;20.60;73.30;;;;;;5025441;28;20215;-77
2022/01/20 12:33:07;;;;;;;19.80;4.03;;;20.70;73.00;;;;;;5031426;28;20650;-77
2022/01/20 12:35:43;;;;;;;20.70;3.87;;;20.70;72.10;;;;;;5028531;28;20176;-75
2022/01/20 12:38:27;;;;;;;16.40;3.83;;;20.80;71.80;;;;;;5031259;28;20184;-76
2022/01/20 12:41:05;;;;;;;17.93;4.40;;;20.80;71.40;;;;;;5033152;28;20243;-78
2022/01/20 12:44:06;;;;;;;26.57;4.43;;;20.90;70.90;;;;;;5031268;28;20568;-79
2022/01/20 12:46:38;;;;;;;26.03;4.90;;;20.90;70.20;;;;;;5029582;28;20267;-82
2022/01/20 12:49:12;;;;;;;27.27;3.90;;;20.90;70.30;;;;;;5032011;28;20250;-80
2022/01/20 12:51:53;;;;;;;21.57;3.93;;;20.90;70.50;;;;;;5033281;28;20181;-83
2022/01/20 12:54:28;;;;;;;20.13;3.50;;;20.90;70.30;;;;;;5032519;28;20271;-77
2022/01/20 12:57:02;;;;;;;19.53;3.97;;;21.00;69.90;;;;;;5029369;28;20638;-80
2022/01/20 12:59:31;;;;;;;19.03;4.27;;;21.00;69.60;;;;;;5031884;28;20215;-78
2022/01/20 13:02:12;;;;;;;21.77;4.37;;;20.90;69.20;;;;;;5032675;28;20184;-77
2022/01/20 13:04:40;;;;;;;17.57;3.90;;;21.00;69.00;;;;;;5031869;28;20650;-76
2022/01/20 13:07:13;;;;;;;15.87;3.77;;;21.00;69.00;;;;;;5032068;28;20220;-79
2022/01/20 13:09:53;;;;;;;25.63;4.80;;;21.00;68.80;;;;;;5031502;28;20527;-86
2022/01/20 13:12:36;;;;;;;25.97;4.20;;;21.00;69.80;;;;;;5032011;28;20211;-78
2022/01/20 13:15:05;;;;;;;28.20;4.97;;;20.90;71.30;;;;;;5030851;28;20208;-78
2022/01/20 13:17:35;;;;;;;19.73;4.03;;;20.80;72.00;;;;;;5031071;28;20610;-82
2022/01/20 13:20:20;;;;;;;33.07;4.93;;;20.80;72.60;;;;;;5031002;28;20232;-79
2022/01/20 13:22:59;;;;;;;24.13;4.70;;;20.80;73.10;;;;;;5031793;28;20181;-81
2022/01/20 13:25:29;;;;;;;23.80;4.17;;;20.70;74.00;;;;;;5030944;28;20268;-77
2022/01/20 13:28:00;;;;;;;30.13;5.23;;;20.70;74.30;;;;;;5030908;28;20176;-80
2022/01/20 13:30:36;;;;;;;20.63;4.13;;;20.60;74.40;;;;;;5031601;28;20177;-79
2022/01/20 13:33:06;;;;;;;19.23;4.23;;;20.60;74.50;;;;;;5044020;28;20266;-77
2022/01/20 13:35:44;;;;;;;22.90;5.00;;;20.60;74.60;;;;;;5028205;28;20737;-80
2022/01/20 13:38:12;;;;;;;24.83;4.57;;;20.50;74.50;;;;;;5030879;28;20184;-77
2022/01/20 13:40:46;;;;;;;23.33;4.40;;;20.50;74.50;;;;;;5030769;28;20766;-79
2022/01/20 13:46:03;;;;;;;19.97;3.87;;;20.40;74.40;;;;;;5032584;28;20195;-79
2022/01/20 13:48:32;;;;;;;21.43;4.57;;;20.50;74.20;;;;;;5032130;28;20207;-80
2022/01/20 13:51:03;;;;;;;26.17;4.40;;;20.60;73.70;;;;;;5032052;28;20176;-79
2022/01/20 13:53:35;;;;;;;22.93;4.50;;;20.60;74.00;;;;;;5030899;28;20189;-84
2022/01/20 13:56:09;;;;;;;33.53;5.27;;;20.60;74.40;;;;;;5031782;28;20176;-81
2022/01/20 13:58:38;;;;;;;27.43;5.20;;;20.70;74.70;;;;;;5025834;28;20195;-79
2022/01/20 14:01:09;;;;;;;30.93;5.57;;;20.70;74.50;;;;;;5031772;28;20550;-81
2022/01/20 14:03:39;;;;;;;20.93;4.37;;;20.70;74.70;;;;;;5032159;28;20192;-79
2022/01/20 14:06:07;;;;;;;26.50;4.77;;;20.70;75.00;;;;;;5031789;28;20606;-80